Menu Close Menu
Station Historical Data
Daily Summary for May 8, 2017 Units:  Metric    English   Both
« Previous Day
Next Day »
Daily Weekly Monthly Yearly Custom
  High: Low: Average:
Temperature: 24.5 °C 10.3 °C 17.1 °C
Dew Point: 11.7 °C 6.4 °C 8.4 °C
Humidity: 82% 35% 59%
Wind Speed: 1.6km/h 0km/h 0.3km/h
Wind Gust: 9.7km/h - -
Wind- - SSW
Pressure: 1021.2 hPa 1017.2 hPa -
Precipitation: 0 mm    
Historical Graphs
 
 
Tabular Data for May 8, 2017
Time Temperature Dew Point Pressure Wind Wind Speed Wind Gust Humidity Rainfall Rate (Hourly) solar Conditions
00:00 11.9 °C 7.6 °C 1017.5 hPa Calm     75% 0 mm WeatherDisplay:10.37 W/m2 SCT
00:15 11.8 °C 7.3 °C 1017.2 hPa Calm     74% 0 mm WeatherDisplay:10.37 W/m2 SCT
00:30 11.8 °C 7.3 °C 1017.2 hPa Calm     74% 0 mm WeatherDisplay:10.37 W/m2 SCT
00:45 11.2 °C 7.5 °C 1017.5 hPa Calm     78% 0 mm WeatherDisplay:10.37 W/m2 SCT
01:00 10.9 °C 7.6 °C 1017.5 hPa Calm     80% 0 mm WeatherDisplay:10.37 W/m2 SCT
01:15 10.6 °C 7.5 °C 1017.5 hPa Calm     81% 0 mm WeatherDisplay:10.37 W/m2 SCT
01:30 11.8 °C 7.3 °C 1017.2 hPa Calm     74% 0 mm WeatherDisplay:10.37 W/m2 SCT
01:45 10.3 °C 7.4 °C 1017.5 hPa Calm     82% 0 mm WeatherDisplay:10.37 W/m2 SCT
02:00 10.3 °C 7.4 °C 1017.5 hPa Calm     82% 0 mm WeatherDisplay:10.37 W/m2 SCT
02:15 10.3 °C 7.4 °C 1017.5 hPa Calm     82% 0 mm WeatherDisplay:10.37 W/m2 SCT
02:30 11.3 °C 6.7 °C 1017.5 hPa Calm     73% 0 mm WeatherDisplay:10.37 W/m2 SCT
02:45 11.3 °C 6.7 °C 1017.8 hPa Calm     73% 0 mm WeatherDisplay:10.37 W/m2 SCT
03:00 11.3 °C 6.7 °C 1017.5 hPa Calm     73% 0 mm WeatherDisplay:10.37 W/m2 SCT
03:15 11.2 °C 6.6 °C 1017.8 hPa Calm     73% 0 mm WeatherDisplay:10.37 W/m2 SCT
03:30 11.2 °C 6.5 °C 1017.8 hPa Calm     73% 0 mm WeatherDisplay:10.37 W/m2 SCT
03:45 11.1 °C 6.6 °C 1017.8 hPa Calm     74% 0 mm WeatherDisplay:10.37 W/m2 SCT
04:00 10.7 °C 6.4 °C 1017.8 hPa Calm     75% 0 mm WeatherDisplay:10.37 W/m2 SCT
04:15 10.8 °C 6.6 °C 1018.2 hPa Calm     75% 0 mm WeatherDisplay:10.37 W/m2 SCT
04:30 10.8 °C 6.6 °C 1018.2 hPa Calm     75% 0 mm WeatherDisplay:10.37 W/m2 SCT
04:45 10.7 °C 6.4 °C 1018.2 hPa Calm     75% 0 mm WeatherDisplay:10.37 W/m2 SCT
05:00 10.7 °C 6.4 °C 1018.2 hPa Calm     75% 0 mm WeatherDisplay:10.37 W/m2 SCT
05:15 10.8 °C 6.6 °C 1018.5 hPa Calm     75% 0 mm WeatherDisplay:10.37 W/m2 SCT
05:30 10.8 °C 6.6 °C 1018.5 hPa Calm     75% 0 mm WeatherDisplay:10.37 W/m2 SCT
05:45 10.7 °C 6.4 °C 1018.2 hPa Calm     75% 0 mm WeatherDisplay:10.37 W/m2 SCT
06:00 10.8 °C 6.6 °C 1018.8 hPa Calm     75% 0 mm WeatherDisplay:10.37 W/m2 SCT
06:15 10.8 °C 6.6 °C 1018.8 hPa Calm     75% 0 mm WeatherDisplay:10.37 W/m2 SCT
06:30 10.8 °C 6.6 °C 1018.8 hPa Calm     75% 0 mm WeatherDisplay:10.37 W/m2 SCT
06:45 10.7 °C 6.4 °C 1019.2 hPa Calm     75% 0 mm WeatherDisplay:10.37 W/m2 SCT
07:00 10.7 °C 6.4 °C 1019.5 hPa Calm     75% 0 mm WeatherDisplay:10.37 W/m2 SCT
07:15 10.7 °C 6.4 °C 1019.9 hPa Calm     75% 0 mm WeatherDisplay:10.37 W/m2 SCT
07:30 10.8 °C 6.6 °C 1019.9 hPa Calm     75% 0 mm WeatherDisplay:10.37 W/m2 SCT
07:45 10.8 °C 6.6 °C 1020.2 hPa Calm     75% 0 mm WeatherDisplay:10.37 W/m2 SCT
08:00 10.6 °C 7.1 °C 1020.2 hPa Calm     79% 0 mm WeatherDisplay:10.37 W/m2 SCT
08:15 10.6 °C 7.1 °C 1020.2 hPa Calm     79% 0 mm WeatherDisplay:10.37 W/m2 SCT
08:30 10.6 °C 7.1 °C 1020.2 hPa Calm     79% 0 mm WeatherDisplay:10.37 W/m2 SCT
08:45 13.3 °C 8.1 °C 1020.2 hPa Calm   1.6 km/h 71% 0 mm WeatherDisplay:10.37 W/m2 SCT
09:00 10.6 °C 7.1 °C 1020.2 hPa Calm     79% 0 mm WeatherDisplay:10.37 W/m2 SCT
09:15 14.3 °C 8.3 °C 1020.2 hPa Calm     67% 0 mm WeatherDisplay:10.37 W/m2 SCT
09:30 16.9 °C 8.6 °C 1020.2 hPa Calm   3.2 km/h 58% 0 mm WeatherDisplay:10.37 W/m2 SCT
09:45 17.4 °C 9.1 °C 1020.2 hPa Calm   1.6 km/h 58% 0 mm WeatherDisplay:10.37 W/m2 SCT
10:00 18.3 °C 9.7 °C 1020.5 hPa Calm   4.8 km/h 57% 0 mm WeatherDisplay:10.37 W/m2 SCT
10:15 18.9 °C 8.3 °C 1020.5 hPa Calm   3.2 km/h 50% 0 mm WeatherDisplay:10.37 W/m2 SCT
10:30 19.4 °C 8.4 °C 1020.9 hPa Calm   4.8 km/h 49% 0 mm WeatherDisplay:10.37 W/m2 SCT
10:45 19 °C 8.1 °C 1020.9 hPa Calm     49% 0 mm WeatherDisplay:10.37 W/m2 SCT
11:00 19 °C 8.1 °C 1020.9 hPa Calm     49% 0 mm WeatherDisplay:10.37 W/m2 SCT
11:15 20.4 °C 9.3 °C 1021.2 hPa Calm   1.6 km/h 49% 0 mm WeatherDisplay:10.37 W/m2 SCT
11:30 20.2 °C 9.7 °C 1020.9 hPa Calm     51% 0 mm WeatherDisplay:10.37 W/m2 SCT
11:45 20.5 °C 8.5 °C 1021.2 hPa Calm   9.7 km/h 46% 0 mm WeatherDisplay:10.37 W/m2 SCT
12:00 20.7 °C 8 °C 1020.9 hPa SSE 1.6 km/h 8 km/h 44% 0 mm WeatherDisplay:10.37 W/m2 SCT
12:15 21.2 °C 8.7 °C 1020.9 hPa Calm   9.7 km/h 45% 0 mm WeatherDisplay:10.37 W/m2 SCT
12:30 21.9 °C 9.1 °C 1020.5 hPa Calm   8 km/h 44% 0 mm WeatherDisplay:10.37 W/m2 SCT
12:45 20.7 °C 8 °C 1020.9 hPa SE 1.6 km/h   44% 0 mm WeatherDisplay:10.37 W/m2 SCT
13:00 23.5 °C 9.5 °C 1020.5 hPa WSW 1.6 km/h 8 km/h 41% 0 mm WeatherDisplay:10.37 W/m2 SCT
13:15 20.7 °C 8 °C 1020.9 hPa SE 1.6 km/h   44% 0 mm WeatherDisplay:10.37 W/m2 SCT
13:30 23.4 °C 9 °C 1020.2 hPa Calm     40% 0 mm WeatherDisplay:10.37 W/m2 SCT
13:45 23.4 °C 9.4 °C 1019.9 hPa Calm   8 km/h 41% 0 mm WeatherDisplay:10.37 W/m2 SCT
14:00 23.7 °C 9.3 °C 1019.9 hPa WSW 1.6 km/h 4.8 km/h 40% 0 mm WeatherDisplay:10.37 W/m2 SCT
14:15 23.4 °C 9.8 °C 1019.9 hPa Calm   8 km/h 42% 0 mm WeatherDisplay:10.37 W/m2 SCT
14:30 23.5 °C 9.5 °C 1019.9 hPa Calm     41% 0 mm WeatherDisplay:10.37 W/m2 SCT
14:45 23.3 °C 8.9 °C 1019.5 hPa SSW 1.6 km/h 8 km/h 40% 0 mm WeatherDisplay:10.37 W/m2 SCT
15:00 23.7 °C 9.6 °C 1019.2 hPa Calm   4.8 km/h 41% 0 mm WeatherDisplay:10.37 W/m2 SCT
15:15 23.3 °C 8.6 °C 1019.2 hPa SW 1.6 km/h 8 km/h 39% 0 mm WeatherDisplay:10.37 W/m2 SCT
15:30 23.2 °C 9.6 °C 1018.8 hPa NNW 1.6 km/h 4.8 km/h 42% 0 mm WeatherDisplay:10.37 W/m2 SCT
15:45 23.2 °C 9.6 °C 1018.8 hPa NNW 1.6 km/h 4.8 km/h 42% 0 mm WeatherDisplay:10.37 W/m2 SCT
16:00 23.4 °C 8.7 °C 1018.5 hPa Calm   8 km/h 39% 0 mm WeatherDisplay:10.37 W/m2 SCT
16:15 23.6 °C 7.6 °C 1018.5 hPa WSW 1.6 km/h 9.7 km/h 36% 0 mm WeatherDisplay:10.37 W/m2 SCT
16:30 23.6 °C 7.2 °C 1018.5 hPa Calm   8 km/h 35% 0 mm WeatherDisplay:10.37 W/m2 SCT
16:45 23.8 °C 8.6 °C 1018.2 hPa Calm   4.8 km/h 38% 0 mm WeatherDisplay:10.37 W/m2 SCT
17:00 24.2 °C 9.7 °C 1018.2 hPa Calm   4.8 km/h 40% 0 mm WeatherDisplay:10.37 W/m2 SCT
17:15 23.9 °C 9.5 °C 1018.2 hPa Calm   3.2 km/h 40% 0 mm WeatherDisplay:10.37 W/m2 SCT
17:30 24.2 °C 8.2 °C 1018.2 hPa East 1.6 km/h 3.2 km/h 36% 0 mm WeatherDisplay:10.37 W/m2 SCT
17:45 23.9 °C 8.3 °C 1017.8 hPa Calm   4.8 km/h 37% 0 mm WeatherDisplay:10.37 W/m2 SCT
18:00 24.5 °C 8.1 °C 1018.2 hPa ESE 1.6 km/h   35% 0 mm WeatherDisplay:10.37 W/m2 SCT
18:15 24.5 °C 8.1 °C 1018.2 hPa ESE 1.6 km/h   35% 0 mm WeatherDisplay:10.37 W/m2 SCT
18:30 23.7 °C 9.3 °C 1017.8 hPa Calm   8 km/h 40% 0 mm WeatherDisplay:10.37 W/m2 SCT
18:45 23.1 °C 8.4 °C 1017.5 hPa SW 1.6 km/h 3.2 km/h 39% 0 mm WeatherDisplay:10.37 W/m2 SCT
19:00 23.1 °C 8.4 °C 1017.5 hPa SW 1.6 km/h   39% 0 mm WeatherDisplay:10.37 W/m2 SCT
19:15 22.6 °C 9.1 °C 1017.8 hPa Calm   1.6 km/h 42% 0 mm WeatherDisplay:10.37 W/m2 SCT
19:30 22.6 °C 9.1 °C 1017.8 hPa Calm     42% 0 mm WeatherDisplay:10.37 W/m2 SCT
19:45 21.6 °C 10.7 °C 1017.8 hPa Calm     50% 0 mm WeatherDisplay:10.37 W/m2 SCT
20:00 21.2 °C 10.9 °C 1017.8 hPa Calm     52% 0 mm WeatherDisplay:10.37 W/m2 SCT
20:15 20.6 °C 10.9 °C 1017.8 hPa Calm     54% 0 mm WeatherDisplay:10.37 W/m2 SCT
20:30 21.2 °C 10.9 °C 1017.8 hPa Calm     52% 0 mm WeatherDisplay:10.37 W/m2 SCT
20:45 19.7 °C 10.9 °C 1017.8 hPa Calm     57% 0 mm WeatherDisplay:10.37 W/m2 SCT
21:00 19.1 °C 10.6 °C 1017.8 hPa Calm     58% 0 mm WeatherDisplay:10.37 W/m2 SCT
21:15 18.7 °C 11.1 °C 1017.8 hPa Calm     61% 0 mm WeatherDisplay:10.37 W/m2 SCT
21:30 18.1 °C 10.9 °C 1017.8 hPa Calm     63% 0 mm WeatherDisplay:10.37 W/m2 SCT
21:45 17.8 °C 11.3 °C 1017.8 hPa Calm     66% 0 mm WeatherDisplay:10.37 W/m2 SCT
22:00 18.7 °C 11.1 °C 1017.8 hPa Calm     61% 0 mm WeatherDisplay:10.37 W/m2 SCT
22:15 18.7 °C 11.1 °C 1017.8 hPa Calm     61% 0 mm WeatherDisplay:10.37 W/m2 SCT
22:30 16.9 °C 11.7 °C 1018.2 hPa Calm     71% 0 mm WeatherDisplay:10.37 W/m2 SCT
22:45 18.7 °C 11.1 °C 1017.8 hPa Calm     61% 0 mm WeatherDisplay:10.37 W/m2 SCT
23:00 16.6 °C 11.6 °C 1018.2 hPa Calm     72% 0 mm WeatherDisplay:10.37 W/m2 SCT
23:15 16.4 °C 11.3 °C 1018.5 hPa Calm     72% 0 mm WeatherDisplay:10.37 W/m2 SCT
23:30 16.2 °C 11.6 °C 1018.2 hPa Calm     74% 0 mm WeatherDisplay:10.37 W/m2 SCT
23:45 15.9 °C 11.1 °C 1018.5 hPa Calm     73% 0 mm WeatherDisplay:10.37 W/m2 SCT
Piedmont Bend
Compliments of Weather Underground - 4 mb